createdAt,value
2016-09-11T00:00:54.667Z,0
2016-09-11T00:01:54.968Z,0
2016-09-11T00:02:54.639Z,0
2016-09-11T00:03:54.730Z,0
2016-09-11T00:04:54.930Z,0
2016-09-11T00:05:54.686Z,0
2016-09-11T00:06:54.602Z,0
2016-09-11T00:07:54.900Z,0
2016-09-11T00:08:54.598Z,0
2016-09-11T00:09:54.881Z,0
2016-09-11T00:10:54.876Z,0
2016-09-11T00:11:54.627Z,0
2016-09-11T00:12:54.520Z,0
2016-09-11T00:13:54.826Z,0
2016-09-11T00:14:54.586Z,0
2016-09-11T00:15:54.813Z,0
2016-09-11T00:16:55.132Z,0
2016-09-11T00:17:54.774Z,0
2016-09-11T00:18:54.599Z,0
2016-09-11T00:19:54.475Z,0
2016-09-11T00:20:55.014Z,0
2016-09-11T00:21:54.425Z,0
2016-09-11T00:22:54.724Z,0
2016-09-11T00:23:54.441Z,0
2016-09-11T00:24:54.389Z,0
2016-09-11T00:25:54.697Z,0
2016-09-11T00:26:54.680Z,0
2016-09-11T00:27:54.665Z,0
2016-09-11T00:28:55.019Z,0
2016-09-11T00:29:54.649Z,0
2016-09-11T00:30:54.353Z,0
2016-09-11T00:31:54.298Z,0
2016-09-11T00:32:54.274Z,0
2016-09-11T00:33:54.993Z,0
2016-09-11T00:34:54.266Z,0
2016-09-11T00:35:54.569Z,0
2016-09-11T00:36:54.268Z,0
2016-09-11T00:37:54.235Z,0
2016-09-11T00:38:54.556Z,0
2016-09-11T00:39:54.517Z,0
2016-09-11T00:40:54.185Z,0
2016-09-11T00:41:54.254Z,0
2016-09-11T00:42:54.164Z,0
2016-09-11T00:43:54.479Z,0
2016-09-11T00:44:54.139Z,0
2016-09-11T00:45:54.459Z,0
2016-09-11T00:46:54.135Z,0
2016-09-11T00:47:54.490Z,0
2016-09-11T00:48:54.438Z,0
2016-09-11T00:49:54.409Z,0
2016-09-11T00:50:54.496Z,0
2016-09-11T00:51:54.477Z,0
2016-09-11T00:52:54.048Z,0
2016-09-11T00:53:54.120Z,0
2016-09-11T00:54:54.363Z,0
2016-09-11T00:55:54.353Z,0
2016-09-11T00:56:53.992Z,0
2016-09-11T00:57:54.449Z,0
2016-09-11T00:58:54.336Z,0
2016-09-11T00:59:53.976Z,0
2016-09-11T01:00:53.999Z,0
2016-09-11T01:01:54.593Z,0
2016-09-11T01:02:54.363Z,0
2016-09-11T01:03:55.010Z,0
2016-09-11T01:04:54.220Z,0
2016-09-11T01:05:53.923Z,0
2016-09-11T01:06:54.547Z,0
2016-09-11T01:07:53.878Z,0
2016-09-11T01:08:53.870Z,0
2016-09-11T01:09:54.175Z,0
2016-09-11T01:10:54.158Z,0
2016-09-11T01:11:54.165Z,0
2016-09-11T01:12:54.273Z,0
2016-09-11T01:13:54.268Z,0
2016-09-11T01:14:53.765Z,0
2016-09-11T01:15:53.786Z,0
2016-09-11T01:16:54.078Z,0
2016-09-11T01:17:54.390Z,0
2016-09-11T01:18:54.053Z,0
2016-09-11T01:19:54.026Z,0
2016-09-11T01:20:53.702Z,0
2016-09-11T01:21:53.688Z,0
2016-09-11T01:22:53.756Z,0
2016-09-11T01:23:53.692Z,0
2016-09-11T01:24:53.727Z,0
2016-09-11T01:25:53.663Z,0
2016-09-11T01:26:53.753Z,0
2016-09-11T01:27:54.259Z,0
2016-09-11T01:28:53.606Z,0
2016-09-11T01:29:53.600Z,0
2016-09-11T01:30:53.928Z,0
2016-09-11T01:31:54.016Z,0
2016-09-11T01:32:53.929Z,0
2016-09-11T01:33:53.549Z,0
2016-09-11T01:34:53.865Z,0
2016-09-11T01:35:53.879Z,0
2016-09-11T01:36:53.564Z,0
2016-09-11T01:37:53.511Z,0
2016-09-11T01:38:53.497Z,0
2016-09-11T01:39:53.464Z,0
2016-09-11T01:40:53.485Z,0
2016-09-11T01:41:53.519Z,0
2016-09-11T01:42:54.078Z,0
2016-09-11T01:43:53.751Z,0
2016-09-11T01:44:53.711Z,0
2016-09-11T01:45:53.740Z,0
2016-09-11T01:46:53.676Z,0
2016-09-11T01:47:53.460Z,0
2016-09-11T01:48:53.487Z,0
2016-09-11T01:49:53.656Z,0
2016-09-11T01:50:53.321Z,0
2016-09-11T01:51:53.301Z,0
2016-09-11T01:52:53.637Z,0
2016-09-11T01:53:53.293Z,0
2016-09-11T01:54:53.589Z,0
2016-09-11T01:55:53.309Z,0
2016-09-11T01:56:53.643Z,0
2016-09-11T01:57:54.197Z,0
2016-09-11T01:58:53.205Z,0
2016-09-11T01:59:53.539Z,0
2016-09-11T02:00:53.528Z,0
2016-09-11T02:01:53.895Z,0
2016-09-11T02:02:53.194Z,0
2016-09-11T02:03:54.141Z,0
2016-09-11T02:04:53.530Z,0
2016-09-11T02:05:53.468Z,0
2016-09-11T02:06:53.109Z,0
2016-09-11T02:07:53.760Z,0
2016-09-11T02:08:53.592Z,0
2016-09-11T02:09:53.403Z,0
2016-09-11T02:10:53.065Z,0
2016-09-11T02:11:53.057Z,0
2016-09-11T02:12:53.105Z,0
2016-09-11T02:13:53.056Z,0
2016-09-11T02:14:53.371Z,0
2016-09-11T02:15:53.338Z,0
2016-09-11T02:16:53.666Z,0
2016-09-11T02:17:53.360Z,0
2016-09-11T02:18:52.982Z,0
2016-09-11T02:19:53.321Z,0
2016-09-11T02:20:52.939Z,0
2016-09-11T02:21:52.953Z,0
2016-09-11T02:22:53.290Z,0
2016-09-11T02:23:53.262Z,0
2016-09-11T02:24:52.987Z,0
2016-09-11T02:25:53.497Z,0
2016-09-11T02:26:52.897Z,0
2016-09-11T02:27:53.182Z,0
2016-09-11T02:28:53.190Z,0
2016-09-11T02:29:53.478Z,0
2016-09-11T02:30:53.115Z,0
2016-09-11T02:31:53.196Z,0
2016-09-11T02:32:53.099Z,0
2016-09-11T02:33:52.879Z,0
2016-09-11T02:34:52.770Z,0
2016-09-11T02:35:53.527Z,0
2016-09-11T02:36:53.368Z,0
2016-09-11T02:37:53.136Z,0
2016-09-11T02:38:53.053Z,0
2016-09-11T02:39:52.711Z,0
2016-09-11T02:40:53.036Z,0
2016-09-11T02:41:53.016Z,0
2016-09-11T02:42:52.659Z,0
2016-09-11T02:43:52.648Z,0
2016-09-11T02:44:52.638Z,0
2016-09-11T02:45:53.334Z,0
2016-09-11T02:46:53.560Z,0
2016-09-11T02:47:52.948Z,0
2016-09-11T02:48:52.964Z,0
2016-09-11T02:49:52.557Z,0
2016-09-11T02:50:52.583Z,0
2016-09-11T02:51:52.546Z,0
2016-09-11T02:52:52.539Z,0
2016-09-11T02:53:52.559Z,0
2016-09-11T02:54:53.222Z,0
2016-09-11T02:55:52.492Z,0
2016-09-11T02:56:53.110Z,0
2016-09-11T02:57:52.790Z,0
2016-09-11T02:58:52.439Z,0
2016-09-11T02:59:52.776Z,0
2016-09-11T03:00:52.719Z,0
2016-09-11T03:01:52.410Z,0
2016-09-11T03:02:52.408Z,0
2016-09-11T03:03:52.395Z,0
2016-09-11T03:04:52.715Z,0
2016-09-11T03:05:52.394Z,0
2016-09-11T03:06:52.532Z,0
2016-09-11T03:07:52.324Z,0
2016-09-11T03:08:52.485Z,0
2016-09-11T03:09:52.292Z,0
2016-09-11T03:10:52.289Z,0
2016-09-11T03:11:52.260Z,0
2016-09-11T03:12:52.578Z,0
2016-09-11T03:13:52.627Z,0
2016-09-11T03:14:52.221Z,0
2016-09-11T03:15:52.536Z,0
2016-09-11T03:16:52.208Z,0
2016-09-11T03:17:52.256Z,0
2016-09-11T03:18:52.487Z,0
2016-09-11T03:19:52.497Z,0
2016-09-11T03:20:52.518Z,0
2016-09-11T03:21:52.958Z,0
2016-09-11T03:22:52.469Z,0
2016-09-11T03:23:52.457Z,0
2016-09-11T03:24:52.095Z,0
2016-09-11T03:25:52.968Z,0
2016-09-11T03:26:52.535Z,0
2016-09-11T03:27:52.413Z,0
2016-09-11T03:28:52.039Z,0
2016-09-11T03:29:52.429Z,0
2016-09-11T03:30:52.019Z,0
2016-09-11T03:31:52.342Z,0
2016-09-11T03:32:52.338Z,0
2016-09-11T03:33:51.999Z,0
2016-09-11T03:34:52.005Z,0
2016-09-11T03:35:52.295Z,0
2016-09-11T03:36:51.988Z,0
2016-09-11T03:37:52.389Z,0
2016-09-11T03:38:52.547Z,0
2016-09-11T03:39:51.928Z,0
2016-09-11T03:40:52.252Z,0
2016-09-11T03:41:51.928Z,0
2016-09-11T03:42:52.333Z,0
2016-09-11T03:43:51.833Z,0
2016-09-11T03:44:52.168Z,0
2016-09-11T03:45:51.817Z,0
2016-09-11T03:46:52.162Z,0
2016-09-11T03:47:51.777Z,0
2016-09-11T03:48:51.797Z,0
2016-09-11T03:49:51.791Z,0
2016-09-11T03:50:51.792Z,0
2016-09-11T03:51:51.725Z,0
2016-09-11T03:52:51.730Z,0
2016-09-11T03:53:51.699Z,0
2016-09-11T03:54:52.066Z,0
2016-09-11T03:55:51.998Z,0
2016-09-11T03:56:51.663Z,0
2016-09-11T03:57:51.868Z,0
2016-09-11T03:58:51.627Z,0
2016-09-11T03:59:52.589Z,0
2016-09-11T04:00:51.640Z,0
2016-09-11T04:01:52.273Z,0
2016-09-11T04:02:51.886Z,0
2016-09-11T04:03:52.278Z,0
2016-09-11T04:04:51.620Z,0
2016-09-11T04:05:51.839Z,0
2016-09-11T04:06:51.566Z,0
2016-09-11T04:07:51.515Z,0
2016-09-11T04:08:51.573Z,0
2016-09-11T04:09:51.693Z,0
2016-09-11T04:10:52.132Z,0
2016-09-11T04:11:51.465Z,0
2016-09-11T04:12:52.188Z,0
2016-09-11T04:13:51.422Z,0
2016-09-11T04:14:51.737Z,0
2016-09-11T04:15:51.712Z,0
2016-09-11T04:16:51.410Z,0
2016-09-11T04:17:51.764Z,0
2016-09-11T04:18:51.427Z,0
2016-09-11T04:19:51.992Z,0
2016-09-11T04:20:51.332Z,0
2016-09-11T04:21:51.365Z,0
2016-09-11T04:22:51.652Z,0
2016-09-11T04:23:51.287Z,0
2016-09-11T04:24:51.512Z,0
2016-09-11T04:25:51.674Z,0
2016-09-11T04:26:51.255Z,0
2016-09-11T04:27:52.190Z,0
2016-09-11T04:28:52.496Z,0
2016-09-11T04:29:52.474Z,0
2016-09-11T04:30:52.127Z,0
2016-09-11T04:31:52.444Z,0
2016-09-11T04:32:52.425Z,0
2016-09-11T04:33:52.148Z,0
2016-09-11T04:34:52.101Z,0
2016-09-11T04:35:51.827Z,0
2016-09-11T04:36:52.057Z,0
2016-09-11T04:37:52.046Z,0
2016-09-11T04:38:52.025Z,0
2016-09-11T04:39:51.710Z,0
2016-09-11T04:40:52.011Z,0
2016-09-11T04:41:52.307Z,0
2016-09-11T04:42:52.327Z,0
2016-09-11T04:43:51.976Z,0
2016-09-11T04:44:51.606Z,0
2016-09-11T04:45:52.244Z,0
2016-09-11T04:46:52.247Z,0
2016-09-11T04:47:51.898Z,0
2016-09-11T04:48:52.216Z,0
2016-09-11T04:49:52.216Z,0
2016-09-11T04:50:52.177Z,0
2016-09-11T04:51:51.857Z,0
2016-09-11T04:52:52.147Z,0
2016-09-11T04:53:51.863Z,0
2016-09-11T04:54:52.108Z,0
2016-09-11T04:55:52.108Z,0
2016-09-11T04:56:52.075Z,0
2016-09-11T04:57:51.441Z,0
2016-09-11T04:58:52.063Z,0
2016-09-11T04:59:52.057Z,0
2016-09-11T05:00:52.057Z,0
2016-09-11T05:01:52.019Z,0
2016-09-11T05:02:52.086Z,5
2016-09-11T05:03:51.670Z,5
2016-09-11T05:04:51.653Z,5
2016-09-11T05:05:51.974Z,5
2016-09-11T05:06:51.943Z,5
2016-09-11T05:07:51.935Z,5
2016-09-11T05:08:51.285Z,5
2016-09-11T05:09:51.633Z,5
2016-09-11T05:10:51.966Z,10
2016-09-11T05:11:51.879Z,10
2016-09-11T05:12:51.896Z,10
2016-09-11T05:13:51.853Z,10
2016-09-11T05:14:51.854Z,10
2016-09-11T05:15:51.866Z,10
2016-09-11T05:16:51.561Z,10
2016-09-11T05:17:51.487Z,10
2016-09-11T05:18:51.785Z,15
2016-09-11T05:19:51.446Z,15
2016-09-11T05:20:51.767Z,15
2016-09-11T05:21:51.763Z,15
2016-09-11T05:22:50.776Z,15
2016-09-11T05:23:51.402Z,15
2016-09-11T05:24:51.403Z,15
2016-09-11T05:25:51.376Z,20
2016-09-11T05:26:51.346Z,20
2016-09-11T05:27:51.673Z,20
2016-09-11T05:28:51.340Z,20
2016-09-11T05:29:51.686Z,20
2016-09-11T05:30:51.316Z,20
2016-09-11T05:31:50.976Z,20
2016-09-11T05:32:51.623Z,25
2016-09-11T05:33:50.973Z,25
2016-09-11T05:34:50.938Z,25
2016-09-11T05:35:51.567Z,25
2016-09-11T05:36:51.546Z,25
2016-09-11T05:37:51.536Z,25
2016-09-11T05:38:51.276Z,25
2016-09-11T05:39:51.517Z,25
2016-09-11T05:40:51.560Z,25
2016-09-11T05:41:50.936Z,25
2016-09-11T05:42:51.497Z,30
2016-09-11T05:43:51.150Z,30
2016-09-11T05:44:51.436Z,30
2016-09-11T05:45:51.438Z,30
2016-09-11T05:46:51.425Z,30
2016-09-11T05:47:51.407Z,30
2016-09-11T05:48:51.376Z,35
2016-09-11T05:49:50.735Z,35
2016-09-11T05:50:51.024Z,35
2016-09-11T05:51:51.354Z,35
2016-09-11T05:52:51.014Z,35
2016-09-11T05:53:50.995Z,35
2016-09-11T05:54:51.009Z,40
2016-09-11T05:55:50.957Z,40
2016-09-11T05:56:51.334Z,40
2016-09-11T05:57:51.254Z,40
2016-09-11T05:58:50.276Z,40
2016-09-11T05:59:50.899Z,40
2016-09-11T06:00:51.236Z,40
2016-09-11T06:01:51.189Z,45
2016-09-11T06:02:51.265Z,45
2016-09-11T06:03:50.546Z,45
2016-09-11T06:04:51.268Z,45
2016-09-11T06:05:51.167Z,45
2016-09-11T06:06:51.165Z,45
2016-09-11T06:07:51.137Z,45
2016-09-11T06:08:50.828Z,45
2016-09-11T06:09:50.796Z,45
2016-09-11T06:10:51.088Z,45
2016-09-11T06:11:50.131Z,45
2016-09-11T06:12:50.124Z,50
2016-09-11T06:13:50.246Z,50
2016-09-11T06:14:50.426Z,50
2016-09-11T06:15:49.770Z,50
2016-09-11T06:16:50.068Z,55
2016-09-11T06:17:50.076Z,55
2016-09-11T06:18:50.077Z,55
2016-09-11T06:19:49.693Z,55
2016-09-11T06:20:50.012Z,60
2016-09-11T06:21:49.679Z,60
2016-09-11T06:22:49.715Z,60
2016-09-11T06:23:49.965Z,60
2016-09-11T06:24:49.957Z,65
2016-09-11T06:25:49.655Z,65
2016-09-11T06:26:49.978Z,65
2016-09-11T06:27:49.694Z,65
2016-09-11T06:28:49.914Z,70
2016-09-11T06:29:49.930Z,70
2016-09-11T06:30:49.856Z,70
2016-09-11T06:31:49.586Z,75
2016-09-11T06:32:49.516Z,75
2016-09-11T06:33:49.842Z,75
2016-09-11T06:34:49.825Z,80
2016-09-11T06:35:49.509Z,80
2016-09-11T06:36:49.473Z,80
2016-09-11T06:37:49.818Z,85
2016-09-11T06:38:49.772Z,85
2016-09-11T06:39:50.061Z,85
2016-09-11T06:40:49.425Z,90
2016-09-11T06:41:49.713Z,90
2016-09-11T06:42:49.402Z,95
2016-09-11T06:43:49.449Z,95
2016-09-11T06:44:49.952Z,95
2016-09-11T06:45:49.688Z,95
2016-09-11T06:46:49.354Z,100
2016-09-11T06:47:49.409Z,105
2016-09-11T06:48:49.542Z,110
2016-09-11T06:49:49.535Z,115
2016-09-11T06:50:49.707Z,120
2016-09-11T06:51:49.279Z,120
2016-09-11T06:52:49.616Z,125
2016-09-11T06:53:49.253Z,130
2016-09-11T06:54:49.260Z,130
2016-09-11T06:55:49.288Z,130
2016-09-11T06:56:49.214Z,140
2016-09-11T06:57:49.529Z,140
2016-09-11T06:58:49.209Z,150
2016-09-11T06:59:49.501Z,215
2016-09-11T07:00:49.530Z,330
2016-09-11T07:01:49.497Z,350
2016-09-11T07:02:49.209Z,270
2016-09-11T07:03:50.129Z,260
2016-09-11T07:04:49.162Z,465
2016-09-11T07:05:49.143Z,490
2016-09-11T07:06:49.477Z,435
2016-09-11T07:07:49.406Z,330
2016-09-11T07:08:49.755Z,220
2016-09-11T07:09:49.394Z,170
2016-09-11T07:10:49.157Z,165
2016-09-11T07:11:49.488Z,165
2016-09-11T07:12:49.366Z,170
2016-09-11T07:13:49.339Z,165
2016-09-11T07:14:49.017Z,165
2016-09-11T07:15:49.027Z,165
2016-09-11T07:16:49.003Z,170
2016-09-11T07:17:49.012Z,170
2016-09-11T07:18:49.001Z,170
2016-09-11T07:19:49.000Z,170
2016-09-11T07:20:48.957Z,185
2016-09-11T07:21:48.991Z,175
2016-09-11T07:22:49.577Z,175
2016-09-11T07:23:49.059Z,175
2016-09-11T07:24:49.272Z,175
2016-09-11T07:25:49.401Z,175
2016-09-11T07:26:49.248Z,175
2016-09-11T07:27:48.939Z,175
2016-09-11T07:28:49.191Z,180
2016-09-11T07:29:49.319Z,175
2016-09-11T07:30:48.919Z,180
2016-09-11T07:31:49.157Z,180
2016-09-11T07:32:48.827Z,180
2016-09-11T07:33:48.929Z,185
2016-09-11T07:34:49.021Z,190
2016-09-11T07:35:48.819Z,195
2016-09-11T07:36:50.294Z,200
2016-09-11T07:37:48.807Z,205
2016-09-11T07:38:49.131Z,210
2016-09-11T07:39:49.119Z,215
2016-09-11T07:40:49.080Z,240
2016-09-11T07:41:49.071Z,275
2016-09-11T07:42:49.084Z,385
2016-09-11T07:43:49.116Z,470
2016-09-11T07:44:48.760Z,485
2016-09-11T07:45:49.063Z,580
2016-09-11T07:46:49.018Z,740
2016-09-11T07:47:49.044Z,790
2016-09-11T07:48:48.726Z,755
2016-09-11T07:49:48.997Z,780
2016-09-11T07:50:48.752Z,705
2016-09-11T07:51:48.969Z,585
2016-09-11T07:52:48.710Z,555
2016-09-11T07:53:48.961Z,690
2016-09-11T07:54:48.939Z,710
2016-09-11T07:55:49.290Z,710
2016-09-11T07:56:48.954Z,705
2016-09-11T07:57:49.347Z,770
2016-09-11T07:58:48.926Z,860
2016-09-11T07:59:48.620Z,825
2016-09-11T08:00:48.917Z,580
2016-09-11T08:01:48.596Z,380
2016-09-11T08:02:48.575Z,310
2016-09-11T08:03:49.005Z,290
2016-09-11T08:04:48.551Z,285
2016-09-11T08:05:48.955Z,280
2016-09-11T08:06:48.945Z,280
2016-09-11T08:07:48.956Z,290
2016-09-11T08:08:49.210Z,305
2016-09-11T08:09:49.475Z,320
2016-09-11T08:10:49.017Z,325
2016-09-11T08:11:49.080Z,325
2016-09-11T08:12:48.568Z,325
2016-09-11T08:13:49.002Z,345
2016-09-11T08:14:48.872Z,355
2016-09-11T08:15:49.126Z,415
2016-09-11T08:16:48.893Z,680
2016-09-11T08:17:48.501Z,910
2016-09-11T08:18:48.932Z,985
2016-09-11T08:19:48.479Z,1095
2016-09-11T08:20:48.819Z,1085
2016-09-11T08:21:49.496Z,1060
2016-09-11T08:22:48.800Z,1060
2016-09-11T08:23:49.010Z,970
2016-09-11T08:24:48.487Z,920
2016-09-11T08:25:48.771Z,870
2016-09-11T08:26:49.107Z,750
2016-09-11T08:27:48.419Z,710
2016-09-11T08:28:48.783Z,695
2016-09-11T08:29:49.091Z,695
2016-09-11T08:30:48.423Z,755
2016-09-11T08:31:48.433Z,675
2016-09-11T08:32:48.430Z,655
2016-09-11T08:33:48.501Z,640
2016-09-11T08:34:48.717Z,625
2016-09-11T08:35:48.797Z,660
2016-09-11T08:36:48.600Z,680
2016-09-11T08:37:48.390Z,770
2016-09-11T08:38:48.405Z,755
2016-09-11T08:39:48.393Z,770
2016-09-11T08:40:48.372Z,775
2016-09-11T08:41:48.859Z,805
2016-09-11T08:42:48.382Z,825
2016-09-11T08:43:48.790Z,765
2016-09-11T08:44:49.060Z,700
2016-09-11T08:45:48.363Z,640
2016-09-11T08:46:49.002Z,645
2016-09-11T08:47:48.349Z,605
2016-09-11T08:48:49.009Z,585
2016-09-11T08:49:48.359Z,520
2016-09-11T08:50:48.679Z,555
2016-09-11T08:51:48.378Z,710
2016-09-11T08:52:48.445Z,675
2016-09-11T08:53:48.347Z,655
2016-09-11T08:54:48.667Z,650
2016-09-11T08:55:48.474Z,675
2016-09-11T08:56:48.643Z,660
2016-09-11T08:57:48.638Z,600
2016-09-11T08:58:48.677Z,590
2016-09-11T08:59:48.607Z,585
2016-09-11T09:00:48.311Z,575
2016-09-11T09:01:48.311Z,585
2016-09-11T09:02:48.623Z,605
2016-09-11T09:03:48.272Z,625
2016-09-11T09:04:48.691Z,605
2016-09-11T09:05:48.601Z,605
2016-09-11T09:06:48.270Z,635
2016-09-11T09:07:48.279Z,625
2016-09-11T09:08:48.255Z,625
2016-09-11T09:09:48.736Z,590
2016-09-11T09:10:48.242Z,490
2016-09-11T09:11:48.263Z,415
2016-09-11T09:12:48.275Z,415
2016-09-11T09:13:48.895Z,380
2016-09-11T09:14:48.603Z,345
2016-09-11T09:15:48.564Z,310
2016-09-11T09:16:48.668Z,310
2016-09-11T09:17:48.261Z,310
2016-09-11T09:18:50.395Z,285
2016-09-11T09:19:48.509Z,295
2016-09-11T09:20:48.222Z,285
2016-09-11T09:21:48.511Z,275
2016-09-11T09:22:48.934Z,405
2016-09-11T09:23:48.187Z,315
2016-09-11T09:24:48.223Z,370
2016-09-11T09:25:48.525Z,425
2016-09-11T09:26:48.480Z,420
2016-09-11T09:27:48.524Z,400
2016-09-11T09:28:48.187Z,535
2016-09-11T09:29:48.163Z,610
2016-09-11T09:30:48.155Z,490
2016-09-11T09:31:48.460Z,405
2016-09-11T09:32:48.451Z,445
2016-09-11T09:33:48.537Z,405
2016-09-11T09:34:48.479Z,495
2016-09-11T09:35:48.136Z,460
2016-09-11T09:36:48.118Z,325
2016-09-11T09:37:48.108Z,315
2016-09-11T09:38:48.161Z,295
2016-09-11T09:39:48.735Z,350
2016-09-11T09:40:48.365Z,390
2016-09-11T09:41:48.332Z,365
2016-09-11T09:42:48.202Z,570
2016-09-11T09:43:48.526Z,555
2016-09-11T09:44:48.083Z,590
2016-09-11T09:45:48.406Z,630
2016-09-11T09:46:48.094Z,650
2016-09-11T09:47:48.449Z,635
2016-09-11T09:48:48.564Z,630
2016-09-11T09:49:48.398Z,625
2016-09-11T09:50:48.349Z,645
2016-09-11T09:51:48.090Z,635
2016-09-11T09:52:48.075Z,645
2016-09-11T09:53:48.080Z,660
2016-09-11T09:54:48.078Z,680
2016-09-11T09:55:47.999Z,715
2016-09-11T09:56:48.370Z,715
2016-09-11T09:57:48.005Z,680
2016-09-11T09:58:48.017Z,685
2016-09-11T09:59:48.291Z,585
2016-09-11T10:00:48.032Z,615
2016-09-11T10:01:48.606Z,625
2016-09-11T10:02:48.532Z,610
2016-09-11T10:03:48.279Z,565
2016-09-11T10:04:48.455Z,545
2016-09-11T10:05:47.965Z,550
2016-09-11T10:06:48.012Z,525
2016-09-11T10:07:48.292Z,535
2016-09-11T10:08:48.267Z,505
2016-09-11T10:09:47.967Z,505
2016-09-11T10:10:47.929Z,535
2016-09-11T10:11:47.918Z,555
2016-09-11T10:12:48.241Z,560
2016-09-11T10:13:48.935Z,550
2016-09-11T10:14:47.929Z,530
2016-09-11T10:15:48.216Z,510
2016-09-11T10:16:47.921Z,495
2016-09-11T10:17:47.985Z,485
2016-09-11T10:18:48.287Z,420
2016-09-11T10:19:48.995Z,380
2016-09-11T10:20:48.040Z,345
2016-09-11T10:21:47.876Z,355
2016-09-11T10:22:48.570Z,350
2016-09-11T10:23:47.885Z,315
2016-09-11T10:24:47.934Z,305
2016-09-11T10:25:48.241Z,305
2016-09-11T10:26:48.197Z,310
2016-09-11T10:27:47.870Z,325
2016-09-11T10:28:47.925Z,325
2016-09-11T10:29:47.862Z,315
2016-09-11T10:30:47.916Z,315
2016-09-11T10:31:48.134Z,315
2016-09-11T10:32:48.130Z,310
2016-09-11T10:33:48.139Z,315
2016-09-11T10:34:47.793Z,315
2016-09-11T10:35:47.784Z,315
2016-09-11T10:36:48.207Z,315
2016-09-11T10:37:47.785Z,315
2016-09-11T10:38:47.770Z,315
2016-09-11T10:39:47.758Z,320
2016-09-11T10:40:48.082Z,320
2016-09-11T10:41:48.283Z,320
2016-09-11T10:42:48.065Z,315
2016-09-11T10:43:47.716Z,315
2016-09-11T10:44:47.722Z,315
2016-09-11T10:45:47.765Z,315
2016-09-11T10:46:47.821Z,315
2016-09-11T10:47:47.742Z,300
2016-09-11T10:48:48.114Z,295
2016-09-11T10:49:47.765Z,295
2016-09-11T10:50:48.047Z,300
2016-09-11T10:51:48.011Z,305
2016-09-11T10:52:48.030Z,305
2016-09-11T10:53:48.359Z,310
2016-09-11T10:54:47.699Z,305
2016-09-11T10:55:48.048Z,305
2016-09-11T10:56:48.039Z,300
2016-09-11T10:57:47.672Z,290
2016-09-11T10:58:47.800Z,290
2016-09-11T10:59:47.909Z,285
2016-09-11T11:00:48.075Z,285
2016-09-11T11:01:47.966Z,280
2016-09-11T11:02:48.052Z,275
2016-09-11T11:03:47.780Z,280
2016-09-11T11:04:47.683Z,275
2016-09-11T11:05:48.262Z,270
2016-09-11T11:06:47.926Z,265
2016-09-11T11:07:47.591Z,270
2016-09-11T11:08:48.619Z,265
2016-09-11T11:09:47.587Z,270
2016-09-11T11:10:47.596Z,275
2016-09-11T11:11:47.604Z,275
2016-09-11T11:12:48.120Z,270
2016-09-11T11:13:47.587Z,270
2016-09-11T11:14:47.685Z,265
2016-09-11T11:15:48.012Z,250
2016-09-11T11:16:47.532Z,245
2016-09-11T11:17:47.547Z,235
2016-09-11T11:18:47.524Z,230
2016-09-11T11:19:47.566Z,225
2016-09-11T11:20:47.905Z,220
2016-09-11T11:21:47.597Z,225
2016-09-11T11:22:47.823Z,225
2016-09-11T11:23:47.528Z,235
2016-09-11T11:24:48.167Z,245
2016-09-11T11:25:47.544Z,245
2016-09-11T11:26:47.556Z,255
2016-09-11T11:27:47.845Z,275
2016-09-11T11:28:47.787Z,275
2016-09-11T11:29:47.788Z,300
2016-09-11T11:30:47.444Z,305
2016-09-11T11:31:47.459Z,305
2016-09-11T11:32:47.570Z,310
2016-09-11T11:33:47.798Z,305
2016-09-11T11:34:47.844Z,310
2016-09-11T11:35:48.137Z,310
2016-09-11T11:36:47.440Z,295
2016-09-11T11:37:47.748Z,290
2016-09-11T11:38:47.820Z,295
2016-09-11T11:39:47.427Z,300
2016-09-11T11:40:47.418Z,300
2016-09-11T11:41:47.436Z,300
2016-09-11T11:42:47.444Z,290
2016-09-11T11:43:47.400Z,295
2016-09-11T11:44:47.360Z,290
2016-09-11T11:45:47.708Z,270
2016-09-11T11:46:47.367Z,300
2016-09-11T11:47:47.354Z,265
2016-09-11T11:49:06.450Z,260
2016-09-11T11:49:47.735Z,250
2016-09-11T11:50:47.651Z,270
2016-09-11T11:51:47.663Z,280
2016-09-11T11:52:47.336Z,280
2016-09-11T11:53:47.330Z,300
2016-09-11T11:54:47.339Z,280
2016-09-11T11:55:47.646Z,270
2016-09-11T11:56:47.330Z,265
2016-09-11T11:57:47.677Z,275
2016-09-11T11:58:47.624Z,280
2016-09-11T11:59:47.293Z,285
2016-09-11T12:00:47.286Z,285
2016-09-11T12:01:47.291Z,295
2016-09-11T12:02:47.958Z,295
2016-09-11T12:03:47.673Z,300
2016-09-11T12:04:47.274Z,300
2016-09-11T12:05:47.578Z,300
2016-09-11T12:06:47.314Z,295
2016-09-11T12:07:47.274Z,310
2016-09-11T12:08:47.580Z,320
2016-09-11T12:09:47.226Z,325
2016-09-11T12:10:47.217Z,325
2016-09-11T12:11:48.163Z,300
2016-09-11T12:12:47.206Z,285
2016-09-11T12:13:47.269Z,270
2016-09-11T12:14:47.300Z,270
2016-09-11T12:15:47.233Z,295
2016-09-11T12:16:47.253Z,295
2016-09-11T12:17:47.537Z,295
2016-09-11T12:18:47.694Z,320
2016-09-11T12:19:47.291Z,300
2016-09-11T12:20:47.194Z,290
2016-09-11T12:21:47.306Z,270
2016-09-11T12:22:47.178Z,255
2016-09-11T12:23:47.177Z,240
2016-09-11T12:24:47.516Z,240
2016-09-11T12:25:47.187Z,240
2016-09-11T12:26:47.199Z,235
2016-09-11T12:27:47.234Z,235
2016-09-11T12:28:47.134Z,235
2016-09-11T12:29:47.119Z,240
2016-09-11T12:30:47.169Z,260
2016-09-11T12:31:48.029Z,270
2016-09-11T12:32:47.116Z,265
2016-09-11T12:33:47.222Z,265
2016-09-11T12:34:47.644Z,265
2016-09-11T12:35:48.154Z,250
2016-09-11T12:36:47.620Z,255
2016-09-11T12:37:47.113Z,250
2016-09-11T12:38:47.448Z,245
2016-09-11T12:39:47.786Z,250
2016-09-11T12:40:47.075Z,250
2016-09-11T12:41:47.067Z,245
2016-09-11T12:42:47.401Z,240
2016-09-11T12:43:47.330Z,245
2016-09-11T12:44:47.044Z,245
2016-09-11T12:45:47.355Z,235
2016-09-11T12:46:47.570Z,240
2016-09-11T12:47:47.005Z,250
2016-09-11T12:48:48.024Z,235
2016-09-11T12:49:47.017Z,245
2016-09-11T12:50:47.353Z,255
2016-09-11T12:51:47.024Z,300
2016-09-11T12:52:47.443Z,275
2016-09-11T12:53:47.371Z,290
2016-09-11T12:54:47.168Z,290
2016-09-11T12:55:46.979Z,285
2016-09-11T12:56:47.051Z,280
2016-09-11T12:57:47.039Z,275
2016-09-11T12:58:46.970Z,285
2016-09-11T12:59:46.954Z,280
2016-09-11T13:00:46.935Z,275
2016-09-11T13:01:46.938Z,270
2016-09-11T13:02:47.408Z,260
2016-09-11T13:03:47.028Z,265
2016-09-11T13:04:47.300Z,260
2016-09-11T13:05:47.157Z,255
2016-09-11T13:06:47.244Z,240
2016-09-11T13:07:46.910Z,230
2016-09-11T13:08:47.216Z,245
2016-09-11T13:09:46.926Z,245
2016-09-11T13:10:47.226Z,240
2016-09-11T13:11:46.926Z,235
2016-09-11T13:12:46.877Z,230
2016-09-11T13:13:46.921Z,230
2016-09-11T13:14:47.192Z,230
2016-09-11T13:15:47.347Z,230
2016-09-11T13:16:46.850Z,230
2016-09-11T13:17:46.849Z,230
2016-09-11T13:18:47.204Z,230
2016-09-11T13:19:46.983Z,230
2016-09-11T13:20:46.848Z,225
2016-09-11T13:21:46.891Z,205
2016-09-11T13:22:47.190Z,200
2016-09-11T13:23:47.144Z,195
2016-09-11T13:24:47.150Z,195
2016-09-11T13:25:47.176Z,195
2016-09-11T13:26:46.808Z,200
2016-09-11T13:27:46.846Z,205
2016-09-11T13:28:46.806Z,225
2016-09-11T13:29:46.817Z,200
2016-09-11T13:30:47.100Z,190
2016-09-11T13:31:46.784Z,205
2016-09-11T13:32:46.763Z,225
2016-09-11T13:33:47.103Z,225
2016-09-11T13:34:46.768Z,225
2016-09-11T13:35:47.063Z,225
2016-09-11T13:36:47.086Z,225
2016-09-11T13:37:46.773Z,210
2016-09-11T13:38:46.760Z,205
2016-09-11T13:39:47.055Z,225
2016-09-11T13:40:47.061Z,220
2016-09-11T13:41:47.092Z,205
2016-09-11T13:42:47.032Z,195
2016-09-11T13:43:46.855Z,200
2016-09-11T13:44:46.682Z,190
2016-09-11T13:45:46.686Z,190
2016-09-11T13:46:46.688Z,195
2016-09-11T13:47:47.087Z,200
2016-09-11T13:48:46.677Z,195
2016-09-11T13:49:46.680Z,195
2016-09-11T13:50:46.716Z,180
2016-09-11T13:51:46.994Z,180
2016-09-11T13:52:46.685Z,190
2016-09-11T13:53:46.638Z,190
2016-09-11T13:54:46.885Z,200
2016-09-11T13:55:47.263Z,190
2016-09-11T13:56:46.715Z,200
2016-09-11T13:57:46.649Z,225
2016-09-11T13:58:46.617Z,220
2016-09-11T13:59:46.929Z,250
2016-09-11T14:00:46.942Z,265
2016-09-11T14:01:46.619Z,270
2016-09-11T14:02:46.656Z,270
2016-09-11T14:03:46.902Z,265
2016-09-11T14:04:46.894Z,265
2016-09-11T14:05:46.945Z,260
2016-09-11T14:06:47.216Z,275
2016-09-11T14:07:46.558Z,260
2016-09-11T14:08:47.228Z,215
2016-09-11T14:09:46.897Z,265
2016-09-11T14:10:46.534Z,255